sensor_id;sensor_type;location;lat;lon;timestamp;P1;durP1;ratioP1;P2;durP2;ratioP2
4202;SDS011;2115;51.038;7.006;2023-03-23T00:00:47;24.00;;;21.40;;
4202;SDS011;2115;51.038;7.006;2023-03-23T00:03:12;23.50;;;21.10;;
4202;SDS011;2115;51.038;7.006;2023-03-23T00:05:41;30.60;;;23.83;;
4202;SDS011;2115;51.038;7.006;2023-03-23T00:08:19;24.20;;;21.60;;
4202;SDS011;2115;51.038;7.006;2023-03-23T00:10:49;27.83;;;22.83;;
4202;SDS011;2115;51.038;7.006;2023-03-23T00:13:22;24.08;;;21.42;;
4202;SDS011;2115;51.038;7.006;2023-03-23T00:15:51;23.37;;;21.00;;
4202;SDS011;2115;51.038;7.006;2023-03-23T00:18:20;23.73;;;21.07;;
4202;SDS011;2115;51.038;7.006;2023-03-23T00:20:50;23.13;;;20.83;;
4202;SDS011;2115;51.038;7.006;2023-03-23T00:23:18;23.37;;;20.97;;
4202;SDS011;2115;51.038;7.006;2023-03-23T00:25:45;23.60;;;21.25;;
4202;SDS011;2115;51.038;7.006;2023-03-23T00:28:12;24.43;;;21.80;;
4202;SDS011;2115;51.038;7.006;2023-03-23T00:30:38;23.03;;;20.70;;
4202;SDS011;2115;51.038;7.006;2023-03-23T00:33:04;23.70;;;21.30;;
4202;SDS011;2115;51.038;7.006;2023-03-23T00:35:29;23.43;;;21.00;;
4202;SDS011;2115;51.038;7.006;2023-03-23T00:37:56;23.23;;;20.90;;
4202;SDS011;2115;51.038;7.006;2023-03-23T00:40:23;23.90;;;21.40;;
4202;SDS011;2115;51.038;7.006;2023-03-23T00:42:49;23.23;;;20.93;;
4202;SDS011;2115;51.038;7.006;2023-03-23T00:45:14;23.80;;;21.40;;
4202;SDS011;2115;51.038;7.006;2023-03-23T00:47:41;25.58;;;22.35;;
4202;SDS011;2115;51.038;7.006;2023-03-23T00:50:11;34.97;;;25.10;;
4202;SDS011;2115;51.038;7.006;2023-03-23T00:52:38;28.93;;;23.50;;
4202;SDS011;2115;51.038;7.006;2023-03-23T00:55:05;23.60;;;21.20;;
4202;SDS011;2115;51.038;7.006;2023-03-23T00:57:31;25.43;;;22.33;;
4202;SDS011;2115;51.038;7.006;2023-03-23T00:59:56;28.63;;;23.20;;
4202;SDS011;2115;51.038;7.006;2023-03-23T01:02:22;23.43;;;21.13;;
4202;SDS011;2115;51.038;7.006;2023-03-23T01:04:51;24.83;;;22.00;;
4202;SDS011;2115;51.038;7.006;2023-03-23T01:07:18;25.50;;;22.07;;
4202;SDS011;2115;51.038;7.006;2023-03-23T01:09:48;23.10;;;20.80;;
4202;SDS011;2115;51.038;7.006;2023-03-23T01:12:13;22.57;;;20.37;;
4202;SDS011;2115;51.038;7.006;2023-03-23T01:14:40;26.30;;;22.33;;
4202;SDS011;2115;51.038;7.006;2023-03-23T01:17:06;26.03;;;22.27;;
4202;SDS011;2115;51.038;7.006;2023-03-23T01:19:32;22.67;;;20.47;;
4202;SDS011;2115;51.038;7.006;2023-03-23T01:21:57;22.47;;;20.27;;
4202;SDS011;2115;51.038;7.006;2023-03-23T01:24:23;27.03;;;22.43;;
4202;SDS011;2115;51.038;7.006;2023-03-23T01:26:48;24.13;;;21.57;;
4202;SDS011;2115;51.038;7.006;2023-03-23T01:29:14;22.50;;;20.30;;
4202;SDS011;2115;51.038;7.006;2023-03-23T01:31:40;24.50;;;21.80;;
4202;SDS011;2115;51.038;7.006;2023-03-23T01:34:07;24.57;;;21.80;;
4202;SDS011;2115;51.038;7.006;2023-03-23T01:36:33;22.87;;;20.67;;
4202;SDS011;2115;51.038;7.006;2023-03-23T01:38:59;22.67;;;20.47;;
4202;SDS011;2115;51.038;7.006;2023-03-23T01:41:27;22.88;;;20.55;;
4202;SDS011;2115;51.038;7.006;2023-03-23T01:43:56;25.40;;;22.07;;
4202;SDS011;2115;51.038;7.006;2023-03-23T01:46:26;26.20;;;23.13;;
4202;SDS011;2115;51.038;7.006;2023-03-23T01:48:53;42.30;;;27.50;;
4202;SDS011;2115;51.038;7.006;2023-03-23T01:51:19;34.55;;;26.70;;
4202;SDS011;2115;51.038;7.006;2023-03-23T01:53:50;22.83;;;20.63;;
4202;SDS011;2115;51.038;7.006;2023-03-23T01:56:20;24.77;;;21.90;;
4202;SDS011;2115;51.038;7.006;2023-03-23T01:58:49;32.30;;;24.20;;
4202;SDS011;2115;51.038;7.006;2023-03-23T02:01:15;24.17;;;21.60;;
4202;SDS011;2115;51.038;7.006;2023-03-23T02:03:42;32.63;;;24.50;;
4202;SDS011;2115;51.038;7.006;2023-03-23T02:06:10;21.43;;;19.53;;
4202;SDS011;2115;51.038;7.006;2023-03-23T02:08:35;24.00;;;21.50;;
4202;SDS011;2115;51.038;7.006;2023-03-23T02:11:08;24.53;;;21.80;;
4202;SDS011;2115;51.038;7.006;2023-03-23T02:13:36;24.77;;;22.07;;
4202;SDS011;2115;51.038;7.006;2023-03-23T02:39:50;21.50;;;19.60;;
4202;SDS011;2115;51.038;7.006;2023-03-23T02:42:20;19.63;;;18.13;;
4202;SDS011;2115;51.038;7.006;2023-03-23T02:44:51;21.77;;;19.83;;
4202;SDS011;2115;51.038;7.006;2023-03-23T02:47:22;20.30;;;18.60;;
4202;SDS011;2115;51.038;7.006;2023-03-23T02:49:50;21.20;;;19.40;;
4202;SDS011;2115;51.038;7.006;2023-03-23T02:52:18;22.27;;;20.38;;
4202;SDS011;2115;51.038;7.006;2023-03-23T02:54:46;19.60;;;18.10;;
4202;SDS011;2115;51.038;7.006;2023-03-23T02:57:12;20.27;;;18.67;;
4202;SDS011;2115;51.038;7.006;2023-03-23T02:59:38;20.23;;;18.63;;
4202;SDS011;2115;51.038;7.006;2023-03-23T03:16:05;20.47;;;18.77;;
4202;SDS011;2115;51.038;7.006;2023-03-23T03:21:25;21.55;;;19.70;;
4202;SDS011;2115;51.038;7.006;2023-03-23T03:23:53;20.13;;;18.47;;
4202;SDS011;2115;51.038;7.006;2023-03-23T03:26:21;21.83;;;19.80;;
4202;SDS011;2115;51.038;7.006;2023-03-23T03:28:51;20.80;;;19.00;;
4202;SDS011;2115;51.038;7.006;2023-03-23T03:31:18;20.43;;;18.73;;
4202;SDS011;2115;51.038;7.006;2023-03-23T03:33:45;22.07;;;20.03;;
4202;SDS011;2115;51.038;7.006;2023-03-23T03:36:19;21.13;;;19.33;;
4202;SDS011;2115;51.038;7.006;2023-03-23T03:38:48;20.83;;;19.07;;
4202;SDS011;2115;51.038;7.006;2023-03-23T03:41:15;20.93;;;19.10;;
4202;SDS011;2115;51.038;7.006;2023-03-23T03:43:41;21.27;;;19.43;;
4202;SDS011;2115;51.038;7.006;2023-03-23T03:46:06;21.73;;;19.70;;
4202;SDS011;2115;51.038;7.006;2023-03-23T03:48:32;28.80;;;25.80;;
4202;SDS011;2115;51.038;7.006;2023-03-23T03:50:57;22.17;;;19.97;;
4202;SDS011;2115;51.038;7.006;2023-03-23T03:53:25;20.87;;;18.97;;
4202;SDS011;2115;51.038;7.006;2023-03-23T03:55:53;20.83;;;18.93;;
4202;SDS011;2115;51.038;7.006;2023-03-23T03:58:25;18.70;;;17.30;;
4202;SDS011;2115;51.038;7.006;2023-03-23T04:00:56;21.30;;;19.30;;
4202;SDS011;2115;51.038;7.006;2023-03-23T04:03:23;20.90;;;19.10;;
4202;SDS011;2115;51.038;7.006;2023-03-23T04:05:49;19.30;;;17.73;;
4202;SDS011;2115;51.038;7.006;2023-03-23T04:08:14;23.20;;;20.70;;
4202;SDS011;2115;51.038;7.006;2023-03-23T04:10:39;19.77;;;18.13;;
4202;SDS011;2115;51.038;7.006;2023-03-23T04:13:05;20.00;;;18.40;;
4202;SDS011;2115;51.038;7.006;2023-03-23T04:15:31;23.63;;;20.87;;
4202;SDS011;2115;51.038;7.006;2023-03-23T04:17:56;23.30;;;20.87;;
4202;SDS011;2115;51.038;7.006;2023-03-23T04:20:22;20.23;;;18.63;;
4202;SDS011;2115;51.038;7.006;2023-03-23T04:22:49;23.30;;;20.77;;
4202;SDS011;2115;51.038;7.006;2023-03-23T04:25:15;20.50;;;18.73;;
4202;SDS011;2115;51.038;7.006;2023-03-23T04:27:46;21.17;;;19.30;;
4202;SDS011;2115;51.038;7.006;2023-03-23T04:30:19;21.57;;;19.53;;
4202;SDS011;2115;51.038;7.006;2023-03-23T04:32:46;22.60;;;20.00;;
4202;SDS011;2115;51.038;7.006;2023-03-23T04:35:15;20.40;;;18.70;;
4202;SDS011;2115;51.038;7.006;2023-03-23T04:37:42;19.33;;;17.83;;
4202;SDS011;2115;51.038;7.006;2023-03-23T04:40:08;28.57;;;22.73;;
4202;SDS011;2115;51.038;7.006;2023-03-23T04:42:39;20.90;;;19.07;;
4202;SDS011;2115;51.038;7.006;2023-03-23T04:45:07;19.60;;;18.10;;
4202;SDS011;2115;51.038;7.006;2023-03-23T04:47:34;21.70;;;19.47;;
4202;SDS011;2115;51.038;7.006;2023-03-23T04:50:18;19.93;;;18.23;;
4202;SDS011;2115;51.038;7.006;2023-03-23T04:52:45;21.67;;;19.60;;
4202;SDS011;2115;51.038;7.006;2023-03-23T04:55:11;19.30;;;17.80;;
4202;SDS011;2115;51.038;7.006;2023-03-23T04:57:37;21.47;;;19.47;;
4202;SDS011;2115;51.038;7.006;2023-03-23T05:00:03;19.73;;;18.13;;
4202;SDS011;2115;51.038;7.006;2023-03-23T05:02:34;22.80;;;20.33;;
4202;SDS011;2115;51.038;7.006;2023-03-23T05:05:05;22.93;;;20.53;;
4202;SDS011;2115;51.038;7.006;2023-03-23T05:07:35;44.60;;;33.10;;
4202;SDS011;2115;51.038;7.006;2023-03-23T05:10:01;20.37;;;18.63;;
4202;SDS011;2115;51.038;7.006;2023-03-23T05:12:26;20.77;;;18.97;;
4202;SDS011;2115;51.038;7.006;2023-03-23T05:14:52;19.43;;;17.90;;
4202;SDS011;2115;51.038;7.006;2023-03-23T05:17:17;19.90;;;18.30;;
4202;SDS011;2115;51.038;7.006;2023-03-23T05:19:43;20.00;;;18.40;;
4202;SDS011;2115;51.038;7.006;2023-03-23T05:22:12;19.30;;;17.80;;
4202;SDS011;2115;51.038;7.006;2023-03-23T05:24:39;20.10;;;18.43;;
4202;SDS011;2115;51.038;7.006;2023-03-23T05:27:05;19.63;;;18.13;;
4202;SDS011;2115;51.038;7.006;2023-03-23T05:29:32;21.77;;;19.67;;
4202;SDS011;2115;51.038;7.006;2023-03-23T05:32:00;19.73;;;18.13;;
4202;SDS011;2115;51.038;7.006;2023-03-23T05:34:27;21.63;;;19.50;;
4202;SDS011;2115;51.038;7.006;2023-03-23T05:36:54;19.93;;;18.30;;
4202;SDS011;2115;51.038;7.006;2023-03-23T05:39:20;19.40;;;17.90;;
4202;SDS011;2115;51.038;7.006;2023-03-23T05:41:46;19.97;;;18.30;;
4202;SDS011;2115;51.038;7.006;2023-03-23T05:44:11;19.10;;;17.60;;
4202;SDS011;2115;51.038;7.006;2023-03-23T05:46:38;19.20;;;17.70;;
4202;SDS011;2115;51.038;7.006;2023-03-23T05:49:04;18.83;;;17.43;;
4202;SDS011;2115;51.038;7.006;2023-03-23T05:51:29;19.27;;;17.73;;
4202;SDS011;2115;51.038;7.006;2023-03-23T05:53:54;19.03;;;17.53;;
4202;SDS011;2115;51.038;7.006;2023-03-23T05:56:20;18.77;;;17.37;;
4202;SDS011;2115;51.038;7.006;2023-03-23T05:58:46;19.33;;;17.83;;
4202;SDS011;2115;51.038;7.006;2023-03-23T06:01:11;18.27;;;16.90;;
4202;SDS011;2115;51.038;7.006;2023-03-23T06:03:39;19.63;;;18.03;;
4202;SDS011;2115;51.038;7.006;2023-03-23T06:06:05;19.07;;;17.67;;
4202;SDS011;2115;51.038;7.006;2023-03-23T06:08:31;20.60;;;18.80;;
4202;SDS011;2115;51.038;7.006;2023-03-23T06:10:56;19.17;;;17.67;;
4202;SDS011;2115;51.038;7.006;2023-03-23T06:13:22;19.40;;;17.87;;
4202;SDS011;2115;51.038;7.006;2023-03-23T06:15:48;22.03;;;19.93;;
4202;SDS011;2115;51.038;7.006;2023-03-23T06:18:13;19.30;;;17.80;;
4202;SDS011;2115;51.038;7.006;2023-03-23T06:20:39;20.53;;;18.73;;
4202;SDS011;2115;51.038;7.006;2023-03-23T06:23:05;23.23;;;20.90;;
4202;SDS011;2115;51.038;7.006;2023-03-23T06:25:31;24.47;;;21.80;;
4202;SDS011;2115;51.038;7.006;2023-03-23T06:27:57;19.97;;;18.37;;
4202;SDS011;2115;51.038;7.006;2023-03-23T06:30:22;21.23;;;19.33;;
4202;SDS011;2115;51.038;7.006;2023-03-23T06:32:48;20.33;;;18.63;;
4202;SDS011;2115;51.038;7.006;2023-03-23T06:35:14;20.40;;;18.70;;
4202;SDS011;2115;51.038;7.006;2023-03-23T06:37:40;21.60;;;19.70;;
4202;SDS011;2115;51.038;7.006;2023-03-23T06:40:05;20.43;;;18.73;;
4202;SDS011;2115;51.038;7.006;2023-03-23T06:42:32;20.93;;;19.13;;
4202;SDS011;2115;51.038;7.006;2023-03-23T06:44:58;21.87;;;19.80;;
4202;SDS011;2115;51.038;7.006;2023-03-23T06:47:25;20.73;;;19.03;;
4202;SDS011;2115;51.038;7.006;2023-03-23T06:49:51;22.30;;;20.20;;
4202;SDS011;2115;51.038;7.006;2023-03-23T06:52:16;22.33;;;20.20;;
4202;SDS011;2115;51.038;7.006;2023-03-23T06:54:42;23.83;;;21.33;;
4202;SDS011;2115;51.038;7.006;2023-03-23T06:57:08;22.73;;;20.50;;
4202;SDS011;2115;51.038;7.006;2023-03-23T06:59:33;27.10;;;23.10;;
4202;SDS011;2115;51.038;7.006;2023-03-23T07:01:59;23.30;;;21.00;;
4202;SDS011;2115;51.038;7.006;2023-03-23T07:04:25;23.23;;;20.93;;
4202;SDS011;2115;51.038;7.006;2023-03-23T07:06:50;21.73;;;19.83;;
4202;SDS011;2115;51.038;7.006;2023-03-23T07:09:15;23.70;;;21.33;;
4202;SDS011;2115;51.038;7.006;2023-03-23T07:11:41;21.80;;;19.80;;
4202;SDS011;2115;51.038;7.006;2023-03-23T07:14:07;21.50;;;19.57;;
4202;SDS011;2115;51.038;7.006;2023-03-23T07:16:32;22.20;;;20.10;;
4202;SDS011;2115;51.038;7.006;2023-03-23T07:18:58;22.40;;;20.30;;
4202;SDS011;2115;51.038;7.006;2023-03-23T07:21:24;22.00;;;19.90;;
4202;SDS011;2115;51.038;7.006;2023-03-23T07:23:50;24.20;;;21.67;;
4202;SDS011;2115;51.038;7.006;2023-03-23T07:26:15;20.80;;;19.00;;
4202;SDS011;2115;51.038;7.006;2023-03-23T07:28:40;24.23;;;21.73;;
4202;SDS011;2115;51.038;7.006;2023-03-23T07:31:06;21.73;;;19.80;;
4202;SDS011;2115;51.038;7.006;2023-03-23T07:33:33;21.90;;;19.90;;
4202;SDS011;2115;51.038;7.006;2023-03-23T07:36:00;22.90;;;20.70;;
4202;SDS011;2115;51.038;7.006;2023-03-23T07:38:26;21.90;;;19.93;;
4202;SDS011;2115;51.038;7.006;2023-03-23T07:40:52;22.07;;;20.07;;
4202;SDS011;2115;51.038;7.006;2023-03-23T07:43:18;23.23;;;20.93;;
4202;SDS011;2115;51.038;7.006;2023-03-23T07:45:45;22.60;;;20.40;;
4202;SDS011;2115;51.038;7.006;2023-03-23T07:48:10;22.30;;;20.20;;
4202;SDS011;2115;51.038;7.006;2023-03-23T07:50:36;22.43;;;20.30;;
4202;SDS011;2115;51.038;7.006;2023-03-23T07:53:02;22.17;;;20.07;;
4202;SDS011;2115;51.038;7.006;2023-03-23T07:55:28;23.30;;;20.90;;
4202;SDS011;2115;51.038;7.006;2023-03-23T07:57:54;23.83;;;21.40;;
4202;SDS011;2115;51.038;7.006;2023-03-23T08:00:20;23.93;;;21.37;;
4202;SDS011;2115;51.038;7.006;2023-03-23T08:02:48;23.33;;;20.93;;
4202;SDS011;2115;51.038;7.006;2023-03-23T08:05:15;23.37;;;21.03;;
4202;SDS011;2115;51.038;7.006;2023-03-23T08:07:41;22.10;;;20.07;;
4202;SDS011;2115;51.038;7.006;2023-03-23T08:10:07;22.30;;;20.20;;
4202;SDS011;2115;51.038;7.006;2023-03-23T08:12:37;22.43;;;20.33;;
4202;SDS011;2115;51.038;7.006;2023-03-23T08:15:04;21.70;;;19.70;;
4202;SDS011;2115;51.038;7.006;2023-03-23T08:17:31;24.20;;;21.85;;
4202;SDS011;2115;51.038;7.006;2023-03-23T08:19:56;28.53;;;23.20;;
4202;SDS011;2115;51.038;7.006;2023-03-23T08:22:22;23.93;;;21.43;;
4202;SDS011;2115;51.038;7.006;2023-03-23T08:24:48;26.07;;;22.20;;
4202;SDS011;2115;51.038;7.006;2023-03-23T08:27:13;22.47;;;20.37;;
4202;SDS011;2115;51.038;7.006;2023-03-23T08:29:39;24.50;;;21.80;;
4202;SDS011;2115;51.038;7.006;2023-03-23T08:32:05;23.27;;;20.90;;
4202;SDS011;2115;51.038;7.006;2023-03-23T08:34:31;23.37;;;21.00;;
4202;SDS011;2115;51.038;7.006;2023-03-23T08:36:57;23.97;;;21.40;;
4202;SDS011;2115;51.038;7.006;2023-03-23T08:39:23;23.23;;;20.93;;
4202;SDS011;2115;51.038;7.006;2023-03-23T08:41:50;22.43;;;20.33;;
4202;SDS011;2115;51.038;7.006;2023-03-23T08:44:15;23.53;;;21.10;;
4202;SDS011;2115;51.038;7.006;2023-03-23T08:46:41;22.63;;;20.43;;
4202;SDS011;2115;51.038;7.006;2023-03-23T08:49:07;24.30;;;21.70;;
4202;SDS011;2115;51.038;7.006;2023-03-23T08:51:32;22.63;;;20.43;;
4202;SDS011;2115;51.038;7.006;2023-03-23T08:54:02;26.07;;;22.37;;
4202;SDS011;2115;51.038;7.006;2023-03-23T08:56:28;24.10;;;21.50;;
4202;SDS011;2115;51.038;7.006;2023-03-23T08:58:53;26.90;;;22.93;;
4202;SDS011;2115;51.038;7.006;2023-03-23T09:01:20;25.00;;;22.13;;
4202;SDS011;2115;51.038;7.006;2023-03-23T09:03:45;23.03;;;20.80;;
4202;SDS011;2115;51.038;7.006;2023-03-23T09:06:11;22.87;;;20.60;;
4202;SDS011;2115;51.038;7.006;2023-03-23T09:08:38;25.15;;;22.50;;
4202;SDS011;2115;51.038;7.006;2023-03-23T09:11:05;23.47;;;21.07;;
4202;SDS011;2115;51.038;7.006;2023-03-23T09:13:32;23.20;;;20.80;;
4202;SDS011;2115;51.038;7.006;2023-03-23T09:15:58;24.17;;;21.43;;
4202;SDS011;2115;51.038;7.006;2023-03-23T09:18:24;23.80;;;21.33;;
4202;SDS011;2115;51.038;7.006;2023-03-23T09:20:50;24.03;;;21.50;;
4202;SDS011;2115;51.038;7.006;2023-03-23T09:23:16;23.27;;;20.90;;
4202;SDS011;2115;51.038;7.006;2023-03-23T09:25:41;22.10;;;20.00;;
4202;SDS011;2115;51.038;7.006;2023-03-23T09:28:07;22.30;;;20.10;;
4202;SDS011;2115;51.038;7.006;2023-03-23T09:30:33;22.80;;;20.57;;
4202;SDS011;2115;51.038;7.006;2023-03-23T09:33:01;23.07;;;20.67;;
4202;SDS011;2115;51.038;7.006;2023-03-23T09:35:27;22.30;;;20.10;;
4202;SDS011;2115;51.038;7.006;2023-03-23T09:37:53;23.80;;;21.27;;
4202;SDS011;2115;51.038;7.006;2023-03-23T09:51:15;23.20;;;20.77;;
4202;SDS011;2115;51.038;7.006;2023-03-23T09:53:48;24.73;;;22.07;;
4202;SDS011;2115;51.038;7.006;2023-03-23T09:56:16;28.10;;;23.10;;
4202;SDS011;2115;51.038;7.006;2023-03-23T09:58:53;24.40;;;21.43;;
4202;SDS011;2115;51.038;7.006;2023-03-23T10:01:32;23.45;;;21.05;;
4202;SDS011;2115;51.038;7.006;2023-03-23T10:04:07;28.40;;;23.00;;
4202;SDS011;2115;51.038;7.006;2023-03-23T10:06:55;22.70;;;20.40;;
4202;SDS011;2115;51.038;7.006;2023-03-23T10:09:23;23.03;;;20.63;;
4202;SDS011;2115;51.038;7.006;2023-03-23T10:11:55;34.23;;;24.70;;
4202;SDS011;2115;51.038;7.006;2023-03-23T10:16:54;22.30;;;20.10;;
4202;SDS011;2115;51.038;7.006;2023-03-23T10:19:35;23.93;;;21.40;;
4202;SDS011;2115;51.038;7.006;2023-03-23T10:22:31;23.70;;;21.20;;
4202;SDS011;2115;51.038;7.006;2023-03-23T10:25:15;23.73;;;21.13;;
4202;SDS011;2115;51.038;7.006;2023-03-23T10:27:48;30.57;;;23.90;;
4202;SDS011;2115;51.038;7.006;2023-03-23T10:32:58;26.50;;;22.60;;
4202;SDS011;2115;51.038;7.006;2023-03-23T10:35:48;25.23;;;22.03;;
4202;SDS011;2115;51.038;7.006;2023-03-23T10:38:23;24.90;;;21.53;;
4202;SDS011;2115;51.038;7.006;2023-03-23T10:40:53;25.43;;;22.37;;
4202;SDS011;2115;51.038;7.006;2023-03-23T10:43:22;22.17;;;19.97;;
4202;SDS011;2115;51.038;7.006;2023-03-23T10:45:51;22.97;;;20.73;;
4202;SDS011;2115;51.038;7.006;2023-03-23T10:48:23;22.37;;;20.27;;
4202;SDS011;2115;51.038;7.006;2023-03-23T10:50:57;21.97;;;19.97;;
4202;SDS011;2115;51.038;7.006;2023-03-23T10:53:30;22.20;;;20.10;;
4202;SDS011;2115;51.038;7.006;2023-03-23T10:56:34;21.83;;;19.80;;
4202;SDS011;2115;51.038;7.006;2023-03-23T10:58:59;23.70;;;21.27;;
4202;SDS011;2115;51.038;7.006;2023-03-23T11:01:41;22.70;;;20.50;;
4202;SDS011;2115;51.038;7.006;2023-03-23T11:04:12;23.90;;;21.40;;
4202;SDS011;2115;51.038;7.006;2023-03-23T11:06:42;21.60;;;19.60;;
4202;SDS011;2115;51.038;7.006;2023-03-23T11:09:14;30.07;;;23.30;;
4202;SDS011;2115;51.038;7.006;2023-03-23T11:11:43;24.73;;;21.63;;
4202;SDS011;2115;51.038;7.006;2023-03-23T11:14:23;23.60;;;20.93;;
4202;SDS011;2115;51.038;7.006;2023-03-23T11:16:53;22.47;;;20.27;;
4202;SDS011;2115;51.038;7.006;2023-03-23T11:19:30;36.50;;;30.40;;
4202;SDS011;2115;51.038;7.006;2023-03-23T11:22:39;23.67;;;21.45;;
4202;SDS011;2115;51.038;7.006;2023-03-23T11:24:52;21.50;;;19.57;;
4202;SDS011;2115;51.038;7.006;2023-03-23T11:27:18;22.17;;;20.10;;
4202;SDS011;2115;51.038;7.006;2023-03-23T11:29:48;26.35;;;23.63;;
4202;SDS011;2115;51.038;7.006;2023-03-23T11:32:17;22.20;;;20.10;;
4202;SDS011;2115;51.038;7.006;2023-03-23T11:34:43;23.90;;;21.40;;
4202;SDS011;2115;51.038;7.006;2023-03-23T11:40:02;22.53;;;20.33;;
4202;SDS011;2115;51.038;7.006;2023-03-23T11:42:48;23.20;;;20.87;;
4202;SDS011;2115;51.038;7.006;2023-03-23T11:45:24;22.97;;;20.67;;
4202;SDS011;2115;51.038;7.006;2023-03-23T11:56:14;23.50;;;21.10;;
4202;SDS011;2115;51.038;7.006;2023-03-23T11:58:43;22.27;;;20.17;;
4202;SDS011;2115;51.038;7.006;2023-03-23T12:06:47;24.47;;;21.77;;
4202;SDS011;2115;51.038;7.006;2023-03-23T12:30:56;21.70;;;19.80;;
4202;SDS011;2115;51.038;7.006;2023-03-23T12:36:18;21.40;;;19.60;;
4202;SDS011;2115;51.038;7.006;2023-03-23T12:41:41;21.87;;;19.97;;
4202;SDS011;2115;51.038;7.006;2023-03-23T12:44:30;21.40;;;19.50;;
4202;SDS011;2115;51.038;7.006;2023-03-23T12:50:05;21.83;;;19.83;;
4202;SDS011;2115;51.038;7.006;2023-03-23T12:53:14;24.17;;;21.63;;
4202;SDS011;2115;51.038;7.006;2023-03-23T12:56:04;21.53;;;19.63;;
4202;SDS011;2115;51.038;7.006;2023-03-23T12:58:37;21.27;;;19.37;;
4202;SDS011;2115;51.038;7.006;2023-03-23T13:01:06;22.40;;;20.37;;
4202;SDS011;2115;51.038;7.006;2023-03-23T13:03:42;21.67;;;19.70;;
4202;SDS011;2115;51.038;7.006;2023-03-23T13:06:17;20.30;;;18.70;;
4202;SDS011;2115;51.038;7.006;2023-03-23T13:08:54;21.23;;;19.43;;
4202;SDS011;2115;51.038;7.006;2023-03-23T13:11:34;22.30;;;20.20;;
4202;SDS011;2115;51.038;7.006;2023-03-23T13:14:03;26.30;;;22.50;;
4202;SDS011;2115;51.038;7.006;2023-03-23T13:22:47;22.77;;;20.57;;
4202;SDS011;2115;51.038;7.006;2023-03-23T13:25:18;22.53;;;20.33;;
4202;SDS011;2115;51.038;7.006;2023-03-23T13:27:58;23.77;;;21.20;;
4202;SDS011;2115;51.038;7.006;2023-03-23T13:30:25;31.47;;;23.63;;
4202;SDS011;2115;51.038;7.006;2023-03-23T13:33:00;26.90;;;22.50;;
4202;SDS011;2115;51.038;7.006;2023-03-23T13:35:28;24.97;;;21.40;;
4202;SDS011;2115;51.038;7.006;2023-03-23T13:37:59;25.36;;;22.70;;
4202;SDS011;2115;51.038;7.006;2023-03-23T13:40:29;23.00;;;20.70;;
4202;SDS011;2115;51.038;7.006;2023-03-23T13:42:55;23.42;;;20.98;;
4202;SDS011;2115;51.038;7.006;2023-03-23T13:53:21;23.63;;;21.13;;
4202;SDS011;2115;51.038;7.006;2023-03-23T13:58:48;25.63;;;21.80;;
4202;SDS011;2115;51.038;7.006;2023-03-23T14:01:18;24.87;;;21.63;;
4202;SDS011;2115;51.038;7.006;2023-03-23T14:03:48;27.70;;;22.27;;
4202;SDS011;2115;51.038;7.006;2023-03-23T14:06:21;23.63;;;21.13;;
4202;SDS011;2115;51.038;7.006;2023-03-23T14:08:49;25.73;;;21.80;;
4202;SDS011;2115;51.038;7.006;2023-03-23T14:11:21;25.13;;;21.70;;
4202;SDS011;2115;51.038;7.006;2023-03-23T14:16:22;24.20;;;21.60;;
4202;SDS011;2115;51.038;7.006;2023-03-23T14:18:51;23.33;;;20.93;;
4202;SDS011;2115;51.038;7.006;2023-03-23T14:21:24;23.17;;;20.80;;
4202;SDS011;2115;51.038;7.006;2023-03-23T14:23:56;28.27;;;22.67;;
4202;SDS011;2115;51.038;7.006;2023-03-23T14:26:25;36.13;;;25.00;;
4202;SDS011;2115;51.038;7.006;2023-03-23T14:28:51;24.60;;;21.50;;
4202;SDS011;2115;51.038;7.006;2023-03-23T14:31:19;26.23;;;22.30;;
4202;SDS011;2115;51.038;7.006;2023-03-23T14:33:46;32.57;;;24.10;;
4202;SDS011;2115;51.038;7.006;2023-03-23T14:36:13;23.90;;;21.30;;
4202;SDS011;2115;51.038;7.006;2023-03-23T14:38:40;26.73;;;22.77;;
4202;SDS011;2115;51.038;7.006;2023-03-23T14:41:05;24.03;;;21.43;;
4202;SDS011;2115;51.038;7.006;2023-03-23T14:43:32;26.00;;;22.03;;
4202;SDS011;2115;51.038;7.006;2023-03-23T14:45:59;26.50;;;22.20;;
4202;SDS011;2115;51.038;7.006;2023-03-23T14:48:26;25.33;;;22.00;;
4202;SDS011;2115;51.038;7.006;2023-03-23T14:50:59;25.80;;;21.80;;
4202;SDS011;2115;51.038;7.006;2023-03-23T14:53:34;23.43;;;20.93;;
4202;SDS011;2115;51.038;7.006;2023-03-23T14:56:03;24.83;;;21.60;;
4202;SDS011;2115;51.038;7.006;2023-03-23T14:58:34;23.70;;;21.20;;
4202;SDS011;2115;51.038;7.006;2023-03-23T15:03:30;23.50;;;21.00;;
4202;SDS011;2115;51.038;7.006;2023-03-23T15:05:59;29.20;;;22.77;;
4202;SDS011;2115;51.038;7.006;2023-03-23T15:08:29;24.97;;;21.67;;
4202;SDS011;2115;51.038;7.006;2023-03-23T15:11:01;24.10;;;21.30;;
4202;SDS011;2115;51.038;7.006;2023-03-23T15:13:32;34.17;;;26.60;;
4202;SDS011;2115;51.038;7.006;2023-03-23T15:16:02;27.17;;;22.43;;
4202;SDS011;2115;51.038;7.006;2023-03-23T15:18:30;24.83;;;21.70;;
4202;SDS011;2115;51.038;7.006;2023-03-23T15:21:06;24.37;;;21.70;;
4202;SDS011;2115;51.038;7.006;2023-03-23T15:23:33;24.40;;;21.67;;
4202;SDS011;2115;51.038;7.006;2023-03-23T15:26:02;24.20;;;21.60;;
4202;SDS011;2115;51.038;7.006;2023-03-23T15:28:31;35.63;;;25.93;;
4202;SDS011;2115;51.038;7.006;2023-03-23T15:31:00;29.30;;;23.60;;
4202;SDS011;2115;51.038;7.006;2023-03-23T15:33:33;10.27;;;9.77;;
4202;SDS011;2115;51.038;7.006;2023-03-23T15:36:04;11.63;;;10.77;;
4202;SDS011;2115;51.038;7.006;2023-03-23T15:38:32;33.80;;;31.50;;
4202;SDS011;2115;51.038;7.006;2023-03-23T15:40:59;19.90;;;17.83;;
4202;SDS011;2115;51.038;7.006;2023-03-23T15:43:27;24.73;;;22.17;;
4202;SDS011;2115;51.038;7.006;2023-03-23T15:48:25;41.17;;;28.37;;
4202;SDS011;2115;51.038;7.006;2023-03-23T15:50:51;32.10;;;25.23;;
4202;SDS011;2115;51.038;7.006;2023-03-23T15:55:51;31.80;;;24.80;;
4202;SDS011;2115;51.038;7.006;2023-03-23T15:58:20;63.43;;;33.83;;
4202;SDS011;2115;51.038;7.006;2023-03-23T16:00:46;59.13;;;33.20;;
4202;SDS011;2115;51.038;7.006;2023-03-23T16:03:14;54.23;;;31.03;;
4202;SDS011;2115;51.038;7.006;2023-03-23T16:05:44;66.23;;;34.63;;
4202;SDS011;2115;51.038;7.006;2023-03-23T16:08:10;58.95;;;32.85;;
4202;SDS011;2115;51.038;7.006;2023-03-23T16:10:35;61.10;;;34.20;;
4202;SDS011;2115;51.038;7.006;2023-03-23T16:13:01;52.93;;;31.13;;
4202;SDS011;2115;51.038;7.006;2023-03-23T16:15:29;53.00;;;31.40;;
4202;SDS011;2115;51.038;7.006;2023-03-23T16:17:54;50.00;;;30.23;;
4202;SDS011;2115;51.038;7.006;2023-03-23T16:20:21;48.50;;;29.77;;
4202;SDS011;2115;51.038;7.006;2023-03-23T16:22:47;48.87;;;29.90;;
4202;SDS011;2115;51.038;7.006;2023-03-23T16:25:14;46.10;;;29.33;;
4202;SDS011;2115;51.038;7.006;2023-03-23T16:27:40;49.07;;;30.10;;
4202;SDS011;2115;51.038;7.006;2023-03-23T16:30:28;46.70;;;29.40;;
4202;SDS011;2115;51.038;7.006;2023-03-23T16:32:53;46.77;;;29.23;;
4202;SDS011;2115;51.038;7.006;2023-03-23T16:35:19;49.23;;;29.90;;
4202;SDS011;2115;51.038;7.006;2023-03-23T16:37:46;44.43;;;28.43;;
4202;SDS011;2115;51.038;7.006;2023-03-23T16:40:15;44.53;;;28.60;;
4202;SDS011;2115;51.038;7.006;2023-03-23T16:42:42;53.17;;;30.37;;
4202;SDS011;2115;51.038;7.006;2023-03-23T16:45:08;48.47;;;29.87;;
4202;SDS011;2115;51.038;7.006;2023-03-23T16:47:34;46.97;;;29.20;;
4202;SDS011;2115;51.038;7.006;2023-03-23T16:50:00;49.43;;;30.10;;
4202;SDS011;2115;51.038;7.006;2023-03-23T16:52:26;50.53;;;31.27;;
4202;SDS011;2115;51.038;7.006;2023-03-23T16:54:51;76.17;;;37.63;;
4202;SDS011;2115;51.038;7.006;2023-03-23T16:57:17;57.07;;;32.40;;
4202;SDS011;2115;51.038;7.006;2023-03-23T16:59:42;50.20;;;31.37;;
4202;SDS011;2115;51.038;7.006;2023-03-23T17:02:11;77.40;;;37.27;;
4202;SDS011;2115;51.038;7.006;2023-03-23T17:04:40;51.83;;;30.63;;
4202;SDS011;2115;51.038;7.006;2023-03-23T17:07:08;46.87;;;29.40;;